createdAt,value
2022-09-18T00:01:10.754Z,2.63
2022-09-18T00:03:38.942Z,2.13
2022-09-18T00:06:09.068Z,2.05
2022-09-18T00:08:38.667Z,2.35
2022-09-18T00:11:07.950Z,2.55
2022-09-18T00:13:37.328Z,2.25
2022-09-18T00:16:06.293Z,2.47
2022-09-18T00:18:34.595Z,1.90
2022-09-18T00:21:05.734Z,2.25
2022-09-18T00:23:33.632Z,2.35
2022-09-18T00:26:03.439Z,3.35
2022-09-18T00:28:31.536Z,2.25
2022-09-18T00:31:05.732Z,2.55
2022-09-18T00:33:34.064Z,1.83
2022-09-18T00:36:03.389Z,1.80
2022-09-18T00:38:32.762Z,2.30
2022-09-18T00:41:02.549Z,2.38
2022-09-18T00:43:32.673Z,1.92
2022-09-18T00:46:04.428Z,2.22
2022-09-18T00:48:44.845Z,2.55
2022-09-18T00:51:14.023Z,2.67
2022-09-18T00:53:48.267Z,2.03
2022-09-18T00:56:18.552Z,2.60
2022-09-18T00:58:47.013Z,2.40
2022-09-18T01:01:14.952Z,2.55
2022-09-18T01:03:42.925Z,2.10
2022-09-18T01:06:15.604Z,2.20
2022-09-18T01:08:56.326Z,2.55
2022-09-18T01:11:42.622Z,2.42
2022-09-18T01:14:31.326Z,2.13
2022-09-18T01:17:06.001Z,2.25
2022-09-18T01:20:12.523Z,2.35
2022-09-18T01:22:52.923Z,2.25
2022-09-18T01:25:29.593Z,2.35
2022-09-18T01:28:10.966Z,2.00
2022-09-18T01:30:43.767Z,1.80
2022-09-18T01:33:19.663Z,1.95
2022-09-18T01:35:50.867Z,2.30
2022-09-18T01:38:22.669Z,1.90
2022-09-18T01:40:53.626Z,2.20
2022-09-18T01:43:24.619Z,2.25
2022-09-18T01:45:55.810Z,2.55
2022-09-18T01:48:27.474Z,1.65
2022-09-18T01:50:58.058Z,1.90
2022-09-18T01:53:30.753Z,2.28
2022-09-18T01:56:03.793Z,2.75
2022-09-18T01:58:35.463Z,2.35
2022-09-18T02:01:09.155Z,2.22
2022-09-18T02:03:40.436Z,2.15
2022-09-18T02:06:15.539Z,2.35
2022-09-18T02:08:48.643Z,2.15
2022-09-18T02:11:19.056Z,2.30
2022-09-18T02:13:54.181Z,2.60
2022-09-18T02:16:27.336Z,2.53
2022-09-18T02:18:58.586Z,1.88
2022-09-18T02:21:29.561Z,2.35
2022-09-18T02:24:07.125Z,3.38
2022-09-18T02:26:38.507Z,3.05
2022-09-18T02:29:12.288Z,2.65
2022-09-18T02:31:40.932Z,2.55
2022-09-18T02:34:10.440Z,2.42
2022-09-18T02:36:51.415Z,4.13
2022-09-18T02:39:31.220Z,2.40
2022-09-18T02:42:08.826Z,2.08
2022-09-18T02:44:46.067Z,2.85
2022-09-18T02:47:25.414Z,2.20
2022-09-18T02:50:03.233Z,2.17
2022-09-18T02:52:35.636Z,3.28
2022-09-18T02:55:10.038Z,2.33
2022-09-18T02:57:41.951Z,2.55
2022-09-18T03:00:16.918Z,3.13
2022-09-18T03:02:45.111Z,3.45
2022-09-18T03:05:13.075Z,2.38
2022-09-18T03:07:41.050Z,2.85
2022-09-18T03:10:13.112Z,2.47
2022-09-18T03:12:40.927Z,2.30
2022-09-18T03:15:11.545Z,2.40
2022-09-18T03:17:39.421Z,2.35
2022-09-18T03:20:08.236Z,2.67
2022-09-18T03:22:36.070Z,2.53
2022-09-18T03:25:04.125Z,2.00
2022-09-18T03:27:31.940Z,1.90
2022-09-18T03:29:59.785Z,2.10
2022-09-18T03:32:28.956Z,1.98
2022-09-18T03:34:57.118Z,1.77
2022-09-18T03:37:25.205Z,2.33
2022-09-18T03:39:53.111Z,1.98
2022-09-18T03:42:20.958Z,2.03
2022-09-18T03:44:48.790Z,2.17
2022-09-18T03:47:17.647Z,1.88
2022-09-18T03:49:46.828Z,2.50
2022-09-18T03:52:14.992Z,2.20
2022-09-18T03:54:42.932Z,2.00
2022-09-18T03:57:10.792Z,1.90
2022-09-18T03:59:38.634Z,2.30
2022-09-18T04:02:06.679Z,2.03
2022-09-18T04:04:35.479Z,2.08
2022-09-18T04:07:05.095Z,2.00
2022-09-18T04:09:32.978Z,2.50
2022-09-18T04:12:00.817Z,2.42
2022-09-18T04:14:30.211Z,3.40
2022-09-18T04:16:58.279Z,1.80
2022-09-18T04:19:26.087Z,1.88
2022-09-18T04:21:53.881Z,2.47
2022-09-18T04:24:23.132Z,2.50
2022-09-18T04:26:51.026Z,2.15
2022-09-18T04:29:18.877Z,2.10
2022-09-18T04:31:46.763Z,2.08
2022-09-18T04:34:14.920Z,2.08
2022-09-18T04:36:42.762Z,2.42
2022-09-18T04:39:10.601Z,2.38
2022-09-18T04:41:39.870Z,1.98
2022-09-18T04:44:08.222Z,2.03
2022-09-18T04:46:36.109Z,1.85
2022-09-18T04:49:04.144Z,1.92
2022-09-18T04:51:32.006Z,1.98
2022-09-18T04:53:59.957Z,2.10
2022-09-18T04:56:27.871Z,2.30
2022-09-18T04:58:57.111Z,1.95
2022-09-18T05:01:25.018Z,1.85
2022-09-18T05:03:52.918Z,2.03
2022-09-18T05:06:20.751Z,2.88
2022-09-18T05:08:48.562Z,2.13
2022-09-18T05:11:16.484Z,2.20
2022-09-18T05:13:44.343Z,2.17
2022-09-18T05:16:13.692Z,2.10
2022-09-18T05:18:41.552Z,2.40
2022-09-18T05:21:10.628Z,1.90
2022-09-18T05:23:38.439Z,1.98
2022-09-18T05:26:06.855Z,1.92
2022-09-18T05:28:34.670Z,2.15
2022-09-18T05:31:02.621Z,2.38
2022-09-18T05:33:32.082Z,1.70
2022-09-18T05:36:00.199Z,2.10
2022-09-18T05:38:28.284Z,2.53
2022-09-18T05:41:00.827Z,1.90
2022-09-18T05:43:28.909Z,2.83
2022-09-18T05:45:57.359Z,2.30
2022-09-18T05:48:25.226Z,2.00
2022-09-18T05:50:54.412Z,2.58
2022-09-18T05:53:22.939Z,2.35
2022-09-18T05:55:50.743Z,3.88
2022-09-18T05:58:20.786Z,2.60
2022-09-18T06:00:50.823Z,2.83
2022-09-18T06:03:19.011Z,2.40
2022-09-18T06:05:55.023Z,3.10
2022-09-18T06:08:24.241Z,2.72
2022-09-18T06:10:53.393Z,3.05
2022-09-18T06:13:21.240Z,3.25
2022-09-18T06:15:52.217Z,3.63
2022-09-18T06:18:20.164Z,3.30
2022-09-18T06:20:55.817Z,3.95
2022-09-18T06:23:24.536Z,3.28
2022-09-18T06:25:58.701Z,3.88
2022-09-18T06:28:26.792Z,4.38
2022-09-18T06:30:54.650Z,3.20
2022-09-18T06:33:22.471Z,3.58
2022-09-18T06:35:50.279Z,4.20
2022-09-18T06:38:19.653Z,3.33
2022-09-18T06:40:51.475Z,3.63
2022-09-18T06:43:19.744Z,3.47
2022-09-18T06:45:53.277Z,4.32
2022-09-18T06:48:21.399Z,3.40
2022-09-18T06:50:53.751Z,3.13
2022-09-18T06:53:23.595Z,3.92
2022-09-18T06:55:51.890Z,2.63
2022-09-18T06:58:21.057Z,3.38
2022-09-18T07:00:48.980Z,3.03
2022-09-18T07:03:16.915Z,4.35
2022-09-18T07:05:45.985Z,2.97
2022-09-18T07:08:14.231Z,2.40
2022-09-18T07:10:44.016Z,2.80
2022-09-18T07:13:11.916Z,2.92
2022-09-18T07:15:39.895Z,2.58
2022-09-18T07:18:08.561Z,2.33
2022-09-18T07:20:36.418Z,2.28
2022-09-18T07:23:04.282Z,2.40
2022-09-18T07:25:34.246Z,2.70
2022-09-18T07:28:08.717Z,2.78
2022-09-18T07:30:37.132Z,2.42
2022-09-18T07:33:06.336Z,2.42
2022-09-18T07:35:34.511Z,2.28
2022-09-18T07:38:03.719Z,2.25
2022-09-18T07:40:31.705Z,2.35
2022-09-18T07:43:00.626Z,2.10
2022-09-18T07:45:30.281Z,3.97
2022-09-18T07:47:58.247Z,2.67
2022-09-18T07:50:26.094Z,2.03
2022-09-18T07:52:55.892Z,2.35
2022-09-18T07:55:25.369Z,2.67
2022-09-18T07:57:57.585Z,2.58
2022-09-18T08:00:25.937Z,2.28
2022-09-18T08:03:03.573Z,2.25
2022-09-18T08:05:32.603Z,3.30
2022-09-18T08:08:04.281Z,2.17
2022-09-18T08:10:32.516Z,1.90
2022-09-18T08:13:00.474Z,2.10
2022-09-18T08:15:28.353Z,1.80
2022-09-18T08:17:56.347Z,2.38
2022-09-18T08:20:25.599Z,2.05
2022-09-18T08:22:53.654Z,1.77
2022-09-18T08:25:21.828Z,1.65
2022-09-18T08:27:49.703Z,1.83
2022-09-18T08:30:17.975Z,1.73
2022-09-18T08:32:46.018Z,1.95
2022-09-18T08:35:14.121Z,1.65
2022-09-18T08:37:49.831Z,1.77
2022-09-18T08:40:22.066Z,2.20
2022-09-18T08:43:05.945Z,1.90
2022-09-18T08:45:43.337Z,2.10
2022-09-18T08:48:15.805Z,2.20
2022-09-18T08:50:48.611Z,1.77
2022-09-18T08:53:23.177Z,1.90
2022-09-18T08:55:53.660Z,1.67
2022-09-18T08:58:26.726Z,2.00
2022-09-18T09:00:59.522Z,2.28
2022-09-18T09:03:34.079Z,2.40
2022-09-18T09:06:07.571Z,2.35
2022-09-18T09:09:00.243Z,2.08
2022-09-18T09:11:37.373Z,1.90
2022-09-18T09:14:56.704Z,1.98
2022-09-18T09:17:39.479Z,2.13
2022-09-18T09:20:22.704Z,1.75
2022-09-18T09:22:57.335Z,2.00
2022-09-18T09:25:33.916Z,2.10
2022-09-18T09:28:15.675Z,2.10
2022-09-18T09:30:47.493Z,2.15
2022-09-18T09:33:22.241Z,2.10
2022-09-18T09:35:54.128Z,1.90
2022-09-18T09:38:34.912Z,2.25
2022-09-18T09:41:13.642Z,1.80
2022-09-18T09:43:48.006Z,1.95
2022-09-18T09:46:24.456Z,1.52
2022-09-18T09:48:57.671Z,1.70
2022-09-18T09:51:32.033Z,1.55
2022-09-18T09:54:02.224Z,1.45
2022-09-18T09:56:38.570Z,1.33
2022-09-18T09:59:18.958Z,1.58
2022-09-18T10:01:50.615Z,2.08
2022-09-18T10:04:27.180Z,1.40
2022-09-18T10:07:01.452Z,1.23
2022-09-18T10:09:38.734Z,1.15
2022-09-18T10:12:19.732Z,1.50
2022-09-18T10:14:50.598Z,1.20
2022-09-18T10:17:20.684Z,1.52
2022-09-18T10:19:49.497Z,1.40
2022-09-18T10:22:23.157Z,1.35
2022-09-18T10:25:00.184Z,1.40
2022-09-18T10:27:29.569Z,1.58
2022-09-18T10:29:57.653Z,1.55
2022-09-18T10:32:36.336Z,1.80
2022-09-18T10:35:35.309Z,1.40
2022-09-18T10:38:03.166Z,1.27
2022-09-18T10:40:33.785Z,1.02
2022-09-18T10:43:04.344Z,0.95
2022-09-18T10:45:40.164Z,1.35
2022-09-18T10:48:13.996Z,1.67
2022-09-18T10:50:53.952Z,1.58
2022-09-18T10:53:32.061Z,1.90
2022-09-18T10:56:05.419Z,1.65
2022-09-18T10:58:35.191Z,1.35
2022-09-18T11:01:05.360Z,1.27
2022-09-18T11:03:41.192Z,0.80
2022-09-18T11:06:15.967Z,1.27
2022-09-18T11:08:46.371Z,1.60
2022-09-18T11:11:22.647Z,1.30
2022-09-18T11:13:57.511Z,1.33
2022-09-18T11:16:27.844Z,1.15
2022-09-18T11:19:08.112Z,1.27
2022-09-18T11:21:45.080Z,1.35
2022-09-18T11:24:21.749Z,1.13
2022-09-18T11:26:54.292Z,1.33
2022-09-18T11:29:31.493Z,1.20
2022-09-18T11:32:04.893Z,1.10
2022-09-18T11:34:37.002Z,1.20
2022-09-18T11:37:08.510Z,1.42
2022-09-18T11:39:38.833Z,1.20
2022-09-18T11:42:13.276Z,0.98
2022-09-18T11:44:43.344Z,1.10
2022-09-18T11:47:35.554Z,1.02
2022-09-18T11:50:15.110Z,1.58
2022-09-18T11:52:45.499Z,1.33
2022-09-18T11:55:24.997Z,1.25
2022-09-18T11:57:57.232Z,1.30
2022-09-18T12:00:30.409Z,1.27
2022-09-18T12:03:08.739Z,1.40
2022-09-18T12:05:47.398Z,1.00
2022-09-18T12:08:19.308Z,1.08
2022-09-18T12:10:54.907Z,1.00
2022-09-18T12:13:36.702Z,1.20
2022-09-18T12:16:12.592Z,1.00
2022-09-18T12:18:49.623Z,1.70
2022-09-18T12:21:21.654Z,1.17
2022-09-18T12:23:51.221Z,1.20
2022-09-18T12:26:26.958Z,1.45
2022-09-18T12:29:11.977Z,1.30
2022-09-18T12:31:48.977Z,1.13
2022-09-18T12:34:27.123Z,1.23
2022-09-18T12:39:52.004Z,1.15
2022-09-18T12:42:30.873Z,0.90
2022-09-18T12:45:41.490Z,0.80
2022-09-18T12:48:28.315Z,0.80
2022-09-18T12:51:10.842Z,0.90
2022-09-18T12:53:50.174Z,1.00
2022-09-18T12:56:35.311Z,0.90
2022-09-18T12:59:20.149Z,0.90
2022-09-18T13:01:52.359Z,0.70
2022-09-18T13:04:25.723Z,0.90
2022-09-18T13:07:02.138Z,1.05
2022-09-18T13:09:34.851Z,0.77
2022-09-18T13:12:06.450Z,1.30
2022-09-18T13:14:40.977Z,1.10
2022-09-18T13:17:14.685Z,0.65
2022-09-18T13:19:51.083Z,0.70
2022-09-18T13:22:20.884Z,0.77
2022-09-18T13:24:53.312Z,0.70
2022-09-18T13:27:24.021Z,0.88
2022-09-18T13:29:59.991Z,1.08
2022-09-18T13:32:45.701Z,0.90
2022-09-18T13:35:24.172Z,0.88
2022-09-18T13:38:13.170Z,0.75
2022-09-18T13:40:43.573Z,1.00
2022-09-18T13:43:34.882Z,0.85
2022-09-18T13:46:07.094Z,0.77
2022-09-18T13:48:42.414Z,0.95
2022-09-18T13:51:20.209Z,0.80
2022-09-18T13:53:48.346Z,0.90
2022-09-18T13:56:17.621Z,0.98
2022-09-18T13:58:55.697Z,1.10
2022-09-18T14:01:57.045Z,1.10
2022-09-18T14:04:50.884Z,1.27
2022-09-18T14:07:55.932Z,0.90
2022-09-18T14:10:37.433Z,0.93
2022-09-18T14:13:31.234Z,1.00
2022-09-18T14:16:03.790Z,1.33
2022-09-18T14:18:40.688Z,1.13
2022-09-18T14:21:21.839Z,0.85
2022-09-18T14:24:23.124Z,0.80
2022-09-18T14:27:00.364Z,1.23
2022-09-18T14:29:32.329Z,1.30
2022-09-18T14:32:02.071Z,1.48
2022-09-18T14:34:38.275Z,0.95
2022-09-18T14:37:26.173Z,1.30
2022-09-18T14:39:56.379Z,0.80
2022-09-18T14:42:32.825Z,1.00
2022-09-18T14:45:15.924Z,1.65
2022-09-18T14:47:46.084Z,1.30
2022-09-18T14:50:36.840Z,1.30
2022-09-18T14:53:21.283Z,1.10
2022-09-18T14:55:55.311Z,0.82
2022-09-18T14:58:26.968Z,0.90
2022-09-18T15:00:56.633Z,0.93
2022-09-18T15:03:28.369Z,1.08
2022-09-18T15:06:05.791Z,1.00
2022-09-18T15:08:33.734Z,1.40
2022-09-18T15:11:03.326Z,0.90
2022-09-18T15:13:37.744Z,1.23
2022-09-18T15:16:06.753Z,0.82
2022-09-18T15:18:41.724Z,1.48
2022-09-18T15:21:21.878Z,1.20
2022-09-18T15:23:50.101Z,0.90
2022-09-18T15:26:20.783Z,0.95
2022-09-18T15:28:51.297Z,1.08
2022-09-18T15:31:20.501Z,1.25
2022-09-18T15:33:54.290Z,1.00
2022-09-18T15:36:26.747Z,0.95
2022-09-18T15:38:55.818Z,1.00
2022-09-18T15:41:38.860Z,1.15
2022-09-18T15:44:07.462Z,0.80
2022-09-18T15:46:37.263Z,1.13
2022-09-18T15:49:28.641Z,2.63
2022-09-18T15:51:56.975Z,1.05
2022-09-18T15:54:27.286Z,1.10
2022-09-18T15:56:58.756Z,1.17
2022-09-18T15:59:30.874Z,1.10
2022-09-18T16:02:00.343Z,1.42
2022-09-18T16:04:32.862Z,1.38
2022-09-18T16:07:04.416Z,1.10
2022-09-18T16:09:38.836Z,1.08
2022-09-18T16:12:28.174Z,0.90
2022-09-18T16:15:02.823Z,0.98
2022-09-18T16:17:53.979Z,2.25
2022-09-18T16:20:29.952Z,0.95
2022-09-18T16:23:05.403Z,0.90
2022-09-18T16:25:37.371Z,1.25
2022-09-18T16:28:15.900Z,1.30
2022-09-18T16:30:44.188Z,0.85
2022-09-18T16:33:18.829Z,1.27
2022-09-18T16:35:48.128Z,1.38
2022-09-18T16:38:15.969Z,0.85
2022-09-18T16:40:44.210Z,1.30
2022-09-18T16:43:13.886Z,1.25
2022-09-18T16:45:41.729Z,0.98
2022-09-18T16:48:09.600Z,1.17
2022-09-18T16:50:38.848Z,1.45
2022-09-18T16:53:08.276Z,1.10
2022-09-18T16:55:38.308Z,1.10
2022-09-18T16:58:08.012Z,1.20
2022-09-18T17:00:37.854Z,1.00
2022-09-18T17:03:06.550Z,0.80
2022-09-18T17:05:34.666Z,1.48
2022-09-18T17:08:03.925Z,1.60
2022-09-18T17:10:31.841Z,0.93
2022-09-18T17:12:59.700Z,0.90
2022-09-18T17:15:27.765Z,0.90
2022-09-18T17:17:57.025Z,1.50
2022-09-18T17:20:24.880Z,1.52
2022-09-18T17:22:52.774Z,1.40
2022-09-18T17:25:20.677Z,0.77
2022-09-18T17:27:50.886Z,1.75
2022-09-18T17:30:19.000Z,0.90
2022-09-18T17:32:48.907Z,1.20
2022-09-18T17:35:18.763Z,1.00
2022-09-18T17:37:46.589Z,1.20
2022-09-18T17:40:14.837Z,1.00
2022-09-18T17:42:42.656Z,1.10
2022-09-18T17:45:11.087Z,1.27
2022-09-18T17:47:38.903Z,1.15
2022-09-18T17:50:07.501Z,1.00
2022-09-18T17:52:37.244Z,0.95
2022-09-18T17:55:05.676Z,1.40
2022-09-18T17:57:36.267Z,0.90
2022-09-18T18:00:04.693Z,2.08
2022-09-18T18:02:33.049Z,0.90
2022-09-18T18:05:02.679Z,1.20
2022-09-18T18:07:30.703Z,1.02
2022-09-18T18:09:59.893Z,1.00
2022-09-18T18:12:27.697Z,0.95
2022-09-18T18:14:55.563Z,1.10
2022-09-18T18:17:23.398Z,1.05
2022-09-18T18:19:51.567Z,1.10
2022-09-18T18:22:19.437Z,1.02
2022-09-18T18:24:49.555Z,1.52
2022-09-18T18:27:21.004Z,1.20
2022-09-18T18:29:50.601Z,1.20
2022-09-18T18:32:18.971Z,1.13
2022-09-18T18:34:48.438Z,1.25
2022-09-18T18:37:17.001Z,1.63
2022-09-18T18:39:44.848Z,0.98
2022-09-18T18:42:12.828Z,1.05
2022-09-18T18:44:42.371Z,1.25
2022-09-18T18:47:10.211Z,1.20
2022-09-18T18:49:38.163Z,2.00
2022-09-18T18:52:07.322Z,1.42
2022-09-18T18:54:35.478Z,1.15
2022-09-18T18:57:03.510Z,1.38
2022-09-18T18:59:32.086Z,1.35
2022-09-18T19:02:02.248Z,1.67
2022-09-18T19:04:30.281Z,2.50
2022-09-18T19:06:58.756Z,1.13
2022-09-18T19:09:29.394Z,1.20
2022-09-18T19:11:57.620Z,1.60
2022-09-18T19:14:28.422Z,1.20
2022-09-18T19:16:56.634Z,1.27
2022-09-18T19:19:28.275Z,1.30
2022-09-18T19:21:59.453Z,1.45
2022-09-18T19:24:28.169Z,1.67
2022-09-18T19:26:56.081Z,1.80
2022-09-18T19:29:24.302Z,1.50
2022-09-18T19:31:52.631Z,1.60
2022-09-18T19:34:22.427Z,2.20
2022-09-18T19:36:51.998Z,1.48
2022-09-18T19:39:23.831Z,1.00
2022-09-18T19:41:56.139Z,1.38
2022-09-18T19:44:31.208Z,1.30
2022-09-18T19:47:01.931Z,1.48
2022-09-18T19:49:33.359Z,1.40
2022-09-18T19:52:03.154Z,1.30
2022-09-18T19:54:31.179Z,1.25
2022-09-18T19:56:59.053Z,1.40
2022-09-18T19:59:27.181Z,3.85
2022-09-18T20:01:55.392Z,1.25
2022-09-18T20:04:23.333Z,1.30
2022-09-18T20:06:51.137Z,1.58
2022-09-18T20:09:20.545Z,1.40
2022-09-18T20:11:48.521Z,1.70
2022-09-18T20:14:16.538Z,1.38
2022-09-18T20:16:44.377Z,1.10
2022-09-18T20:19:12.180Z,0.90
2022-09-18T20:21:40.065Z,1.70
2022-09-18T20:24:07.992Z,2.47
2022-09-18T20:26:37.237Z,1.13
2022-09-18T20:29:06.116Z,1.00
2022-09-18T20:31:33.996Z,1.08
2022-09-18T20:34:02.535Z,1.00
2022-09-18T20:36:31.944Z,1.25
2022-09-18T20:39:03.543Z,1.10
2022-09-18T20:41:31.622Z,1.00
2022-09-18T20:44:04.741Z,1.15
2022-09-18T20:46:37.239Z,0.73
2022-09-18T20:49:06.395Z,0.88
2022-09-18T20:51:35.821Z,1.20
2022-09-18T20:54:05.037Z,0.98
2022-09-18T20:56:36.089Z,1.17
2022-09-18T21:03:14.243Z,1.10
2022-09-18T21:05:44.311Z,1.20
2022-09-18T21:08:12.194Z,1.52
2022-09-18T21:10:46.595Z,1.00
2022-09-18T21:13:16.252Z,1.10
2022-09-18T21:15:48.620Z,1.55
2022-09-18T21:18:19.411Z,1.30
2022-09-18T21:20:47.280Z,0.95
2022-09-18T21:23:32.865Z,2.08
2022-09-18T21:26:00.729Z,1.15
2022-09-18T21:28:28.566Z,1.20
2022-09-18T21:30:57.480Z,1.23
2022-09-18T21:33:27.147Z,1.30
2022-09-18T21:35:55.599Z,1.30
2022-09-18T21:38:23.419Z,1.33
2022-09-18T21:40:51.610Z,1.20
2022-09-18T21:43:19.469Z,1.25
2022-09-18T21:45:48.010Z,1.38
2022-09-18T21:48:15.842Z,1.10
2022-09-18T21:50:45.094Z,1.90
2022-09-18T21:53:12.917Z,1.15
2022-09-18T21:55:40.740Z,1.52
2022-09-18T21:58:08.547Z,1.10
2022-09-18T22:00:36.416Z,1.35
2022-09-18T22:03:04.737Z,1.30
2022-09-18T22:05:36.172Z,1.00
2022-09-18T22:08:05.328Z,1.23
2022-09-18T22:10:35.167Z,1.10
2022-09-18T22:13:03.030Z,1.52
2022-09-18T22:15:30.928Z,1.40
2022-09-18T22:17:58.838Z,1.40
2022-09-18T22:20:26.753Z,1.15
2022-09-18T22:22:54.925Z,1.33
2022-09-18T22:25:24.135Z,1.05
2022-09-18T22:27:52.482Z,1.67
2022-09-18T22:30:20.757Z,1.30
2022-09-18T22:32:48.589Z,1.13
2022-09-18T22:35:16.495Z,1.60
2022-09-18T22:37:44.321Z,1.70
2022-09-18T22:40:12.423Z,1.38
2022-09-18T22:42:41.710Z,1.98
2022-09-18T22:45:10.632Z,1.63
2022-09-18T22:47:38.441Z,1.33
2022-09-18T22:50:07.305Z,1.73
2022-09-18T22:52:36.572Z,1.80
2022-09-18T22:55:04.598Z,1.45
2022-09-18T22:57:32.534Z,1.10
2022-09-18T23:00:01.694Z,1.25
2022-09-18T23:02:29.979Z,1.63
2022-09-18T23:04:59.042Z,1.45
2022-09-18T23:07:27.143Z,1.60
2022-09-18T23:09:55.009Z,1.80
2022-09-18T23:12:22.813Z,1.20
2022-09-18T23:14:50.691Z,1.58
2022-09-18T23:17:19.875Z,1.45
2022-09-18T23:19:47.691Z,1.58
2022-09-18T23:22:15.556Z,1.88
2022-09-18T23:24:43.421Z,1.73
2022-09-18T23:27:11.242Z,0.82
2022-09-18T23:29:39.255Z,0.75
2022-09-18T23:32:08.383Z,0.60
2022-09-18T23:34:37.861Z,0.47
2022-09-18T23:37:05.678Z,0.60
2022-09-18T23:39:34.760Z,0.60
2022-09-18T23:42:05.573Z,0.50
2022-09-18T23:44:34.154Z,0.47
2022-09-18T23:47:02.539Z,0.40
2022-09-18T23:49:31.016Z,0.60
2022-09-18T23:52:01.444Z,0.65
2022-09-18T23:54:31.156Z,0.73
2022-09-18T23:56:59.512Z,0.40
2022-09-18T23:59:28.298Z,0.65
